This is the latest recevied weather packets stored in our database for station/object N4AR. If no packets are shown the sender has not sent any weather packets the latest 1 day(s).
| Time | Temp. | Humidity | Pressure | Rain* | Wind** | Luminosity | Snow |
|---|---|---|---|---|---|---|---|
| 1778075448 | 20.56° C | 70% | 1013.7 hPa | 0 mm | - | 81 W/m² | - |
| 1778075145 | 20.56° C | 70% | 1014.1 hPa | 0 mm | - | 89 W/m² | - |
| 1778073630 | 20.56° C | 69% | 1013.8 hPa | 0 mm | - | 117 W/m² | - |
| 1778073023 | 21.11° C | 70% | 1013.9 hPa | 0 mm | - | 162 W/m² | - |
| 1778072720 | 20.56° C | 70% | 1014.1 hPa | 0 mm | - | 187 W/m² | - |
| 1778071511 | 19.44° C | 74% | 1013.6 hPa | 0 mm | - | 101 W/m² | - |
| 1778070906 | 19.44° C | 74% | 1013.7 hPa | 0 mm | - | 113 W/m² | - |
| 1778069999 | 18.89° C | 75% | 1014.1 hPa | 0 mm | - | 108 W/m² | - |
| 1778068787 | 18.33° C | 76% | 1014 hPa | 0 mm | - | 60 W/m² | - |
| 1778068485 | 18.33° C | 76% | 1014.1 hPa | 0 mm | - | 56 W/m² | - |
| 1778068183 | 18.33° C | 76% | 1014.2 hPa | 0 mm | - | 50 W/m² | - |
| 1778067880 | 18.33° C | 76% | 1014.2 hPa | 0 mm | - | 52 W/m² | - |
| 1778066065 | 17.78° C | 77% | 1014.3 hPa | 0 mm | - | 52 W/m² | - |
| 1778065762 | 17.22° C | 77% | 1014 hPa | 0 mm | - | 49 W/m² | - |
| 1778065460 | 17.22° C | 78% | 1014.4 hPa | 0 mm | - | 48 W/m² | - |
| 1778065156 | 17.22° C | 78% | 1014.4 hPa | 0 mm | - | 45 W/m² | - |
| 1778064550 | 16.67° C | 78% | 1014.2 hPa | 0 mm | - | 32 W/m² | - |
| 1778064248 | 16.67° C | 79% | 1014.1 hPa | 0 mm | - | 26 W/m² | - |
| 1778063643 | 16.67° C | 79% | 1014 hPa | 0 mm | - | 20 W/m² | - |
| 1778063038 | 16.11° C | 80% | 1014.1 hPa | 0 mm | - | 10 W/m² | - |
| 1778060315 | 16.11° C | 80% | 1013.9 hPa | 0 mm | - | 0 W/m² | - |
| 1778060012 | 16.11° C | 80% | 1014.3 hPa | 0 mm | - | 0 W/m² | - |
| 1778059104 | 16.67° C | 78% | 1014.2 hPa | 0 mm | - | 0 W/m² | - |
| 1778058802 | 16.67° C | 78% | 1014.1 hPa | 0 mm | - | 0 W/m² | - |
| 1778057893 | 16.67° C | 77% | 1014.4 hPa | 0 mm | - | 0 W/m² | - |
* Rain latest hour (hover to see other rain measurements)
** Current wind speed in m/s (hover to see current wind gust speed)